sensor_id;sensor_type;location;lat;lon;timestamp;noise_LAeq;noise_LA_min;noise_LA_max;noise_LA01;noise_LA95
42701;Laerm;28316;49.504;8.526;2024-03-02T00:00:07;38.49;36.20;40.43;;
42701;Laerm;28316;49.504;8.526;2024-03-02T00:02:43;38.47;35.94;40.43;;
42701;Laerm;28316;49.504;8.526;2024-03-02T00:05:19;38.50;35.66;40.33;;
42701;Laerm;28316;49.504;8.526;2024-03-02T00:07:52;38.49;35.94;40.80;;
42701;Laerm;28316;49.504;8.526;2024-03-02T00:10:25;38.48;35.66;40.71;;
42701;Laerm;28316;49.504;8.526;2024-03-02T00:12:55;38.47;36.20;40.63;;
42701;Laerm;28316;49.504;8.526;2024-03-02T00:18:33;38.59;36.20;40.53;;
42701;Laerm;28316;49.504;8.526;2024-03-02T00:21:00;38.60;36.20;40.71;;
42701;Laerm;28316;49.504;8.526;2024-03-02T00:23:30;38.61;35.94;40.62;;
42701;Laerm;28316;49.504;8.526;2024-03-02T00:25:57;38.63;35.94;40.62;;
42701;Laerm;28316;49.504;8.526;2024-03-02T00:28:36;38.63;36.20;40.98;;
42701;Laerm;28316;49.504;8.526;2024-03-02T00:31:07;38.65;36.20;40.80;;
42701;Laerm;28316;49.504;8.526;2024-03-02T00:33:46;38.66;35.66;40.71;;
42701;Laerm;28316;49.504;8.526;2024-03-02T00:36:15;38.69;35.66;40.53;;
42701;Laerm;28316;49.504;8.526;2024-03-02T00:38:51;38.68;36.45;40.71;;
42701;Laerm;28316;49.504;8.526;2024-03-02T00:41:30;38.68;36.20;40.62;;
42701;Laerm;28316;49.504;8.526;2024-03-02T00:44:06;38.68;36.20;40.53;;
42701;Laerm;28316;49.504;8.526;2024-03-02T00:46:41;38.67;36.45;40.80;;
42701;Laerm;28316;49.504;8.526;2024-03-02T00:49:24;38.67;35.66;40.62;;
42701;Laerm;28316;49.504;8.526;2024-03-02T00:51:53;38.65;36.20;40.33;;
42701;Laerm;28316;49.504;8.526;2024-03-02T00:54:25;38.65;36.20;40.80;;
42701;Laerm;28316;49.504;8.526;2024-03-02T00:56:52;38.63;35.94;40.62;;
42701;Laerm;28316;49.504;8.526;2024-03-02T00:59:21;38.66;35.94;40.71;;
42701;Laerm;28316;49.504;8.526;2024-03-02T01:01:48;38.67;36.45;40.71;;
42701;Laerm;28316;49.504;8.526;2024-03-02T01:04:15;38.64;36.20;40.62;;
42701;Laerm;28316;49.504;8.526;2024-03-02T01:06:44;38.60;35.94;40.71;;
42701;Laerm;28316;49.504;8.526;2024-03-02T01:09:11;38.55;35.66;40.98;;
42701;Laerm;28316;49.504;8.526;2024-03-02T01:11:38;38.53;35.94;40.53;;
42701;Laerm;28316;49.504;8.526;2024-03-02T01:14:04;38.35;35.94;40.53;;
42701;Laerm;28316;49.504;8.526;2024-03-02T01:16:30;38.32;35.66;40.33;;
42701;Laerm;28316;49.504;8.526;2024-03-02T01:18:56;38.43;35.94;40.53;;
42701;Laerm;28316;49.504;8.526;2024-03-02T01:21:21;38.51;35.94;40.63;;
42701;Laerm;28316;49.504;8.526;2024-03-02T01:23:47;38.51;36.20;40.43;;
42701;Laerm;28316;49.504;8.526;2024-03-02T01:26:13;38.55;35.86;40.89;;
42701;Laerm;28316;49.504;8.526;2024-03-02T01:28:39;38.63;36.45;40.62;;
42701;Laerm;28316;49.504;8.526;2024-03-02T01:31:05;38.65;36.20;40.89;;
42701;Laerm;28316;49.504;8.526;2024-03-02T01:33:30;38.59;36.20;40.53;;
42701;Laerm;28316;49.504;8.526;2024-03-02T01:35:56;38.56;36.20;40.53;;
42701;Laerm;28316;49.504;8.526;2024-03-02T01:38:22;38.59;35.66;40.71;;
42701;Laerm;28316;49.504;8.526;2024-03-02T01:40:48;38.57;36.20;40.62;;
42701;Laerm;28316;49.504;8.526;2024-03-02T01:43:14;38.58;35.94;40.62;;
42701;Laerm;28316;49.504;8.526;2024-03-02T01:45:39;38.55;35.94;40.53;;
42701;Laerm;28316;49.504;8.526;2024-03-02T01:48:06;38.58;36.20;40.98;;
42701;Laerm;28316;49.504;8.526;2024-03-02T01:50:33;38.56;35.94;40.53;;
42701;Laerm;28316;49.504;8.526;2024-03-02T01:53:00;38.59;36.20;40.45;;
42701;Laerm;28316;49.504;8.526;2024-03-02T01:55:26;38.58;35.94;40.53;;
42701;Laerm;28316;49.504;8.526;2024-03-02T01:57:54;38.57;36.45;40.89;;
42701;Laerm;28316;49.504;8.526;2024-03-02T02:00:21;38.56;35.94;40.53;;
42701;Laerm;28316;49.504;8.526;2024-03-02T02:02:50;38.52;35.94;40.53;;
42701;Laerm;28316;49.504;8.526;2024-03-02T02:05:17;38.50;35.94;40.62;;
42701;Laerm;28316;49.504;8.526;2024-03-02T02:07:43;38.47;35.59;40.43;;
42701;Laerm;28316;49.504;8.526;2024-03-02T02:10:13;38.46;36.10;40.43;;
42701;Laerm;28316;49.504;8.526;2024-03-02T02:12:39;38.45;35.66;40.80;;
42701;Laerm;28316;49.504;8.526;2024-03-02T02:17:47;38.37;35.36;40.62;;
42701;Laerm;28316;49.504;8.526;2024-03-02T02:20:13;38.39;34.69;40.71;;
42701;Laerm;28316;49.504;8.526;2024-03-02T02:22:39;38.38;35.66;40.43;;
42701;Laerm;28316;49.504;8.526;2024-03-02T02:25:05;38.37;35.94;40.89;;
42701;Laerm;28316;49.504;8.526;2024-03-02T02:27:31;38.36;35.36;40.43;;
42701;Laerm;28316;49.504;8.526;2024-03-02T02:29:57;38.32;35.04;40.53;;
42701;Laerm;28316;49.504;8.526;2024-03-02T02:32:22;38.34;35.66;40.43;;
42701;Laerm;28316;49.504;8.526;2024-03-02T02:34:52;38.36;35.94;40.43;;
42701;Laerm;28316;49.504;8.526;2024-03-02T02:37:18;38.37;35.36;40.53;;
42701;Laerm;28316;49.504;8.526;2024-03-02T02:39:44;38.37;35.94;40.71;;
42701;Laerm;28316;49.504;8.526;2024-03-02T02:42:12;38.36;35.94;40.43;;
42701;Laerm;28316;49.504;8.526;2024-03-02T02:44:38;38.38;35.94;40.89;;
42701;Laerm;28316;49.504;8.526;2024-03-02T02:47:03;38.37;35.94;40.43;;
42701;Laerm;28316;49.504;8.526;2024-03-02T02:49:29;38.35;35.36;40.62;;
42701;Laerm;28316;49.504;8.526;2024-03-02T02:51:55;38.34;35.36;40.36;;
42701;Laerm;28316;49.504;8.526;2024-03-02T02:54:20;38.29;35.66;40.43;;
42701;Laerm;28316;49.504;8.526;2024-03-02T02:56:46;38.21;35.36;40.33;;
42701;Laerm;28316;49.504;8.526;2024-03-02T02:59:12;38.16;35.66;40.36;;
42701;Laerm;28316;49.504;8.526;2024-03-02T03:01:37;38.05;35.36;40.23;;
42701;Laerm;28316;49.504;8.526;2024-03-02T03:04:03;38.04;35.36;40.13;;
42701;Laerm;28316;49.504;8.526;2024-03-02T03:06:29;38.01;35.04;40.53;;
42701;Laerm;28316;49.504;8.526;2024-03-02T03:08:55;38.07;35.04;40.23;;
42701;Laerm;28316;49.504;8.526;2024-03-02T03:11:23;38.01;35.36;40.33;;
42701;Laerm;28316;49.504;8.526;2024-03-02T03:13:50;37.95;35.04;40.33;;
42701;Laerm;28316;49.504;8.526;2024-03-02T03:16:16;37.98;35.04;40.13;;
42701;Laerm;28316;49.504;8.526;2024-03-02T03:18:41;37.91;35.36;40.53;;
42701;Laerm;28316;49.504;8.526;2024-03-02T03:21:07;37.82;34.69;40.43;;
42701;Laerm;28316;49.504;8.526;2024-03-02T03:23:33;37.75;35.04;40.43;;
42701;Laerm;28316;49.504;8.526;2024-03-02T03:25:58;37.76;35.04;40.13;;
42701;Laerm;28316;49.504;8.526;2024-03-02T03:28:24;37.74;35.01;40.33;;
42701;Laerm;28316;49.504;8.526;2024-03-02T03:30:50;37.66;34.69;40.03;;
42701;Laerm;28316;49.504;8.526;2024-03-02T03:33:16;37.69;35.04;40.23;;
42701;Laerm;28316;49.504;8.526;2024-03-02T03:35:41;37.76;35.04;39.92;;
42701;Laerm;28316;49.504;8.526;2024-03-02T03:38:07;37.76;34.69;40.03;;
42701;Laerm;28316;49.504;8.526;2024-03-02T03:40:33;37.82;34.69;39.81;;
42701;Laerm;28316;49.504;8.526;2024-03-02T03:42:58;37.85;35.04;40.71;;
42701;Laerm;28316;49.504;8.526;2024-03-02T03:45:25;37.88;34.69;40.62;;
42701;Laerm;28316;49.504;8.526;2024-03-02T03:47:53;37.80;34.31;40.13;;
42701;Laerm;28316;49.504;8.526;2024-03-02T03:50:19;37.75;35.01;40.13;;
42701;Laerm;28316;49.504;8.526;2024-03-02T03:52:45;37.73;35.04;40.13;;
42701;Laerm;28316;49.504;8.526;2024-03-02T03:55:11;37.76;34.69;40.33;;
42701;Laerm;28316;49.504;8.526;2024-03-02T03:57:36;37.70;34.69;40.43;;
42701;Laerm;28316;49.504;8.526;2024-03-02T04:00:03;37.77;34.31;41.06;;
42701;Laerm;28316;49.504;8.526;2024-03-02T04:02:29;37.75;34.69;40.23;;
42701;Laerm;28316;49.504;8.526;2024-03-02T04:04:55;37.73;34.31;40.23;;
42701;Laerm;28316;49.504;8.526;2024-03-02T04:07:21;37.74;34.69;40.53;;
42701;Laerm;28316;49.504;8.526;2024-03-02T04:09:46;37.78;34.69;40.03;;
42701;Laerm;28316;49.504;8.526;2024-03-02T04:12:12;37.75;35.04;40.13;;
42701;Laerm;28316;49.504;8.526;2024-03-02T04:14:38;37.66;34.69;40.62;;
42701;Laerm;28316;49.504;8.526;2024-03-02T04:17:04;37.60;34.31;39.81;;
42701;Laerm;28316;49.504;8.526;2024-03-02T04:19:30;37.56;34.31;40.03;;
42701;Laerm;28316;49.504;8.526;2024-03-02T04:21:56;37.56;34.69;40.03;;
42701;Laerm;28316;49.504;8.526;2024-03-02T04:24:22;37.56;34.69;39.81;;
42701;Laerm;28316;49.504;8.526;2024-03-02T04:26:47;37.74;34.69;40.80;;
42701;Laerm;28316;49.504;8.526;2024-03-02T04:29:13;37.79;34.69;40.71;;
42701;Laerm;28316;49.504;8.526;2024-03-02T04:31:39;37.73;33.90;40.13;;
42701;Laerm;28316;49.504;8.526;2024-03-02T04:34:04;37.67;35.01;39.92;;
42701;Laerm;28316;49.504;8.526;2024-03-02T04:36:30;37.61;34.31;40.03;;
42701;Laerm;28316;49.504;8.526;2024-03-02T04:38:56;37.64;34.31;40.03;;
42701;Laerm;28316;49.504;8.526;2024-03-02T04:41:22;37.61;34.31;40.13;;
42701;Laerm;28316;49.504;8.526;2024-03-02T04:43:48;37.68;34.69;39.81;;
42701;Laerm;28316;49.504;8.526;2024-03-02T04:46:13;37.75;35.04;39.81;;
42701;Laerm;28316;49.504;8.526;2024-03-02T04:48:39;37.81;34.69;40.03;;
42701;Laerm;28316;49.504;8.526;2024-03-02T04:51:05;37.84;35.04;40.23;;
42701;Laerm;28316;49.504;8.526;2024-03-02T04:53:30;38.09;35.04;41.38;;
42701;Laerm;28316;49.504;8.526;2024-03-02T04:55:56;38.08;35.36;41.30;;
42701;Laerm;28316;49.504;8.526;2024-03-02T04:58:40;38.03;35.04;40.23;;
42701;Laerm;28316;49.504;8.526;2024-03-02T05:01:06;38.05;35.66;40.53;;
42701;Laerm;28316;49.504;8.526;2024-03-02T05:03:32;38.04;35.04;40.43;;
42701;Laerm;28316;49.504;8.526;2024-03-02T05:06:00;38.08;35.66;40.53;;
42701;Laerm;28316;49.504;8.526;2024-03-02T05:08:25;38.14;35.04;40.33;;
42701;Laerm;28316;49.504;8.526;2024-03-02T05:10:51;38.13;34.69;40.23;;
42701;Laerm;28316;49.504;8.526;2024-03-02T05:13:17;38.09;35.04;40.23;;
42701;Laerm;28316;49.504;8.526;2024-03-02T05:15:43;38.06;35.36;40.23;;
42701;Laerm;28316;49.504;8.526;2024-03-02T05:18:09;38.05;35.36;40.33;;
42701;Laerm;28316;49.504;8.526;2024-03-02T05:20:34;38.03;35.04;40.23;;
42701;Laerm;28316;49.504;8.526;2024-03-02T05:23:00;38.04;35.36;40.80;;
42701;Laerm;28316;49.504;8.526;2024-03-02T05:25:26;38.08;35.04;40.33;;
42701;Laerm;28316;49.504;8.526;2024-03-02T05:27:51;38.01;35.04;40.53;;
42701;Laerm;28316;49.504;8.526;2024-03-02T05:30:17;38.01;35.04;40.62;;
42701;Laerm;28316;49.504;8.526;2024-03-02T05:32:43;37.98;35.04;40.13;;
42701;Laerm;28316;49.504;8.526;2024-03-02T05:35:09;37.98;35.66;40.23;;
42701;Laerm;28316;49.504;8.526;2024-03-02T05:37:36;37.91;35.36;40.03;;
42701;Laerm;28316;49.504;8.526;2024-03-02T05:40:02;37.88;34.69;39.92;;
42701;Laerm;28316;49.504;8.526;2024-03-02T05:42:28;37.92;34.69;40.18;;
42701;Laerm;28316;49.504;8.526;2024-03-02T05:44:54;37.99;35.36;40.23;;
42701;Laerm;28316;49.504;8.526;2024-03-02T05:47:20;38.06;35.36;40.23;;
42701;Laerm;28316;49.504;8.526;2024-03-02T05:49:45;38.09;35.36;40.23;;
42701;Laerm;28316;49.504;8.526;2024-03-02T05:52:11;38.04;35.04;40.62;;
42701;Laerm;28316;49.504;8.526;2024-03-02T05:54:38;38.01;35.04;40.43;;
42701;Laerm;28316;49.504;8.526;2024-03-02T05:57:04;37.99;35.04;40.03;;
42701;Laerm;28316;49.504;8.526;2024-03-02T05:59:47;37.96;35.04;40.23;;
42701;Laerm;28316;49.504;8.526;2024-03-02T06:02:13;37.93;35.04;40.23;;
42701;Laerm;28316;49.504;8.526;2024-03-02T06:04:39;37.92;35.04;40.33;;
42701;Laerm;28316;49.504;8.526;2024-03-02T06:07:04;37.86;35.04;39.81;;
42701;Laerm;28316;49.504;8.526;2024-03-02T06:09:30;37.86;35.01;40.03;;
42701;Laerm;28316;49.504;8.526;2024-03-02T06:11:56;37.87;35.04;40.23;;
42701;Laerm;28316;49.504;8.526;2024-03-02T06:14:22;37.90;35.04;40.03;;
42701;Laerm;28316;49.504;8.526;2024-03-02T06:16:47;37.86;35.31;40.23;;
42701;Laerm;28316;49.504;8.526;2024-03-02T06:19:13;37.83;35.04;39.92;;
42701;Laerm;28316;49.504;8.526;2024-03-02T06:21:39;37.82;34.31;39.99;;
42701;Laerm;28316;49.504;8.526;2024-03-02T06:24:05;37.84;34.69;40.23;;
42701;Laerm;28316;49.504;8.526;2024-03-02T06:26:34;37.90;35.04;40.13;;
42701;Laerm;28316;49.504;8.526;2024-03-02T06:29:00;37.91;35.04;40.33;;
42701;Laerm;28316;49.504;8.526;2024-03-02T06:31:27;37.96;35.04;40.23;;
42701;Laerm;28316;49.504;8.526;2024-03-02T06:33:53;37.89;35.04;40.33;;
42701;Laerm;28316;49.504;8.526;2024-03-02T06:36:19;37.84;35.04;39.92;;
42701;Laerm;28316;49.504;8.526;2024-03-02T06:38:44;37.73;34.69;40.13;;
42701;Laerm;28316;49.504;8.526;2024-03-02T06:41:10;37.69;34.69;40.71;;
42701;Laerm;28316;49.504;8.526;2024-03-02T06:43:36;37.69;34.69;40.03;;
42701;Laerm;28316;49.504;8.526;2024-03-02T06:46:02;37.73;33.90;40.13;;
42701;Laerm;28316;49.504;8.526;2024-03-02T06:48:28;37.81;34.31;40.23;;
42701;Laerm;28316;49.504;8.526;2024-03-02T06:50:55;37.89;34.69;40.03;;
42701;Laerm;28316;49.504;8.526;2024-03-02T06:53:21;37.90;34.69;39.99;;
42701;Laerm;28316;49.504;8.526;2024-03-02T06:55:48;37.98;35.04;40.13;;
42701;Laerm;28316;49.504;8.526;2024-03-02T06:58:14;38.05;35.36;40.23;;
42701;Laerm;28316;49.504;8.526;2024-03-02T07:00:43;38.14;35.36;40.13;;
42701;Laerm;28316;49.504;8.526;2024-03-02T07:03:11;38.22;35.36;40.33;;
42701;Laerm;28316;49.504;8.526;2024-03-02T07:05:37;38.29;35.36;40.53;;
42701;Laerm;28316;49.504;8.526;2024-03-02T07:08:03;38.27;35.66;40.43;;
42701;Laerm;28316;49.504;8.526;2024-03-02T07:10:30;38.31;35.04;40.33;;
42701;Laerm;28316;49.504;8.526;2024-03-02T07:12:56;38.36;35.94;40.71;;
42701;Laerm;28316;49.504;8.526;2024-03-02T07:15:22;38.41;35.66;40.80;;
42701;Laerm;28316;49.504;8.526;2024-03-02T07:18:04;38.48;35.36;40.53;;
42701;Laerm;28316;49.504;8.526;2024-03-02T07:20:30;38.48;35.66;40.53;;
42701;Laerm;28316;49.504;8.526;2024-03-02T07:22:56;38.51;35.94;40.71;;
42701;Laerm;28316;49.504;8.526;2024-03-02T07:25:22;38.52;35.66;40.43;;
42701;Laerm;28316;49.504;8.526;2024-03-02T07:27:47;38.53;36.20;41.30;;
42701;Laerm;28316;49.504;8.526;2024-03-02T07:30:16;38.53;35.94;40.43;;
42701;Laerm;28316;49.504;8.526;2024-03-02T07:32:42;38.62;36.20;40.53;;
42701;Laerm;28316;49.504;8.526;2024-03-02T07:35:14;38.69;36.20;40.62;;
42701;Laerm;28316;49.504;8.526;2024-03-02T07:37:42;38.83;36.20;40.80;;
42701;Laerm;28316;49.504;8.526;2024-03-02T07:40:08;38.92;36.45;40.89;;
42701;Laerm;28316;49.504;8.526;2024-03-02T07:42:40;38.94;36.45;41.06;;
42701;Laerm;28316;49.504;8.526;2024-03-02T07:45:07;39.02;36.45;40.80;;
42701;Laerm;28316;49.504;8.526;2024-03-02T07:47:34;39.04;36.91;40.98;;
42701;Laerm;28316;49.504;8.526;2024-03-02T07:50:00;39.00;36.45;40.71;;
42701;Laerm;28316;49.504;8.526;2024-03-02T07:52:26;38.98;36.69;40.62;;
42701;Laerm;28316;49.504;8.526;2024-03-02T07:54:52;39.11;36.45;41.14;;
42701;Laerm;28316;49.504;8.526;2024-03-02T07:57:17;39.30;37.12;41.53;;
42701;Laerm;28316;49.504;8.526;2024-03-02T07:59:43;39.43;37.52;41.06;;
42701;Laerm;28316;49.504;8.526;2024-03-02T08:02:09;39.59;37.70;41.30;;
42701;Laerm;28316;49.504;8.526;2024-03-02T08:04:35;39.67;37.52;41.30;;
42701;Laerm;28316;49.504;8.526;2024-03-02T08:07:02;39.74;37.70;41.68;;
42701;Laerm;28316;49.504;8.526;2024-03-02T08:09:28;39.85;37.70;41.41;;
42701;Laerm;28316;49.504;8.526;2024-03-02T08:11:54;39.95;38.21;41.53;;
42701;Laerm;28316;49.504;8.526;2024-03-02T08:14:20;40.07;38.05;41.38;;
42701;Laerm;28316;49.504;8.526;2024-03-02T08:16:46;40.17;38.52;41.68;;
42701;Laerm;28316;49.504;8.526;2024-03-02T08:19:11;40.31;38.67;41.96;;
42701;Laerm;28316;49.504;8.526;2024-03-02T08:21:37;40.50;38.99;42.09;;
42701;Laerm;28316;49.504;8.526;2024-03-02T08:24:03;40.62;39.21;42.09;;
42701;Laerm;28316;49.504;8.526;2024-03-02T08:26:29;40.66;38.95;41.96;;
42701;Laerm;28316;49.504;8.526;2024-03-02T08:28:58;40.71;38.95;41.96;;
42701;Laerm;28316;49.504;8.526;2024-03-02T08:31:24;40.76;39.21;42.09;;
42701;Laerm;28316;49.504;8.526;2024-03-02T08:33:50;40.83;38.67;42.29;;
42701;Laerm;28316;49.504;8.526;2024-03-02T08:36:15;40.89;39.21;42.29;;
42701;Laerm;28316;49.504;8.526;2024-03-02T08:38:41;40.89;39.34;42.16;;
42701;Laerm;28316;49.504;8.526;2024-03-02T08:41:07;40.93;39.21;42.16;;
42701;Laerm;28316;49.504;8.526;2024-03-02T08:43:34;40.95;39.46;42.22;;
42701;Laerm;28316;49.504;8.526;2024-03-02T08:46:00;40.97;38.95;42.24;;
42701;Laerm;28316;49.504;8.526;2024-03-02T08:48:25;40.98;39.58;42.41;;
42701;Laerm;28316;49.504;8.526;2024-03-02T08:50:51;41.01;39.58;42.47;;
42701;Laerm;28316;49.504;8.526;2024-03-02T08:53:17;41.00;39.34;42.22;;
42701;Laerm;28316;49.504;8.526;2024-03-02T08:55:45;41.03;39.70;42.41;;
42701;Laerm;28316;49.504;8.526;2024-03-02T08:58:12;41.02;39.34;42.22;;
42701;Laerm;28316;49.504;8.526;2024-03-02T09:00:38;41.04;39.34;42.16;;
42701;Laerm;28316;49.504;8.526;2024-03-02T09:03:04;41.07;39.58;42.47;;
42701;Laerm;28316;49.504;8.526;2024-03-02T09:05:29;41.09;39.46;42.35;;
42701;Laerm;28316;49.504;8.526;2024-03-02T09:07:55;41.10;39.46;42.65;;
42701;Laerm;28316;49.504;8.526;2024-03-02T09:10:21;41.17;39.46;42.47;;
42701;Laerm;28316;49.504;8.526;2024-03-02T09:12:47;41.24;39.46;42.53;;
42701;Laerm;28316;49.504;8.526;2024-03-02T09:15:12;41.29;39.81;42.47;;
42701;Laerm;28316;49.504;8.526;2024-03-02T09:17:38;41.30;39.81;42.47;;
42701;Laerm;28316;49.504;8.526;2024-03-02T09:20:05;41.29;39.92;42.59;;
42701;Laerm;28316;49.504;8.526;2024-03-02T09:22:31;41.28;39.81;42.47;;
42701;Laerm;28316;49.504;8.526;2024-03-02T09:24:57;41.32;39.92;42.53;;
42701;Laerm;28316;49.504;8.526;2024-03-02T09:27:24;41.30;39.81;42.59;;
42701;Laerm;28316;49.504;8.526;2024-03-02T09:29:50;41.35;39.92;42.53;;
42701;Laerm;28316;49.504;8.526;2024-03-02T09:32:16;41.30;40.03;42.76;;
42701;Laerm;28316;49.504;8.526;2024-03-02T09:34:42;41.28;39.81;42.47;;
42701;Laerm;28316;49.504;8.526;2024-03-02T09:37:08;41.31;39.92;42.65;;
42701;Laerm;28316;49.504;8.526;2024-03-02T09:39:34;41.38;40.03;42.71;;
42701;Laerm;28316;49.504;8.526;2024-03-02T09:42:00;41.44;39.92;42.65;;
42701;Laerm;28316;49.504;8.526;2024-03-02T09:44:26;41.73;40.03;42.98;;
42701;Laerm;28316;49.504;8.526;2024-03-02T09:46:52;42.04;40.62;43.14;;
42701;Laerm;28316;49.504;8.526;2024-03-02T09:49:18;42.09;40.62;43.24;;
42701;Laerm;28316;49.504;8.526;2024-03-02T09:51:48;42.08;40.62;43.24;;
42701;Laerm;28316;49.504;8.526;2024-03-02T09:54:16;42.05;40.62;44.94;;
42701;Laerm;28316;49.504;8.526;2024-03-02T09:56:42;42.02;40.62;43.19;;
42701;Laerm;28316;49.504;8.526;2024-03-02T09:59:08;41.99;40.62;43.04;;
42701;Laerm;28316;49.504;8.526;2024-03-02T10:01:33;41.97;40.23;43.09;;
42701;Laerm;28316;49.504;8.526;2024-03-02T10:04:00;41.95;40.53;43.04;;
42701;Laerm;28316;49.504;8.526;2024-03-02T10:06:27;41.93;40.13;43.24;;
42701;Laerm;28316;49.504;8.526;2024-03-02T10:08:54;41.90;40.71;43.09;;
42701;Laerm;28316;49.504;8.526;2024-03-02T10:11:34;41.90;40.53;43.19;;
42701;Laerm;28316;49.504;8.526;2024-03-02T10:16:38;41.85;40.53;43.24;;
42701;Laerm;28316;49.504;8.526;2024-03-02T10:19:23;41.84;40.43;43.39;;
42701;Laerm;28316;49.504;8.526;2024-03-02T10:21:55;41.81;40.13;43.04;;
42701;Laerm;28316;49.504;8.526;2024-03-02T10:24:24;41.80;40.13;42.95;;
42701;Laerm;28316;49.504;8.526;2024-03-02T10:26:51;41.76;40.23;43.09;;
42701;Laerm;28316;49.504;8.526;2024-03-02T10:29:22;41.74;39.81;43.04;;
42701;Laerm;28316;49.504;8.526;2024-03-02T10:32:02;41.72;40.03;43.09;;
42701;Laerm;28316;49.504;8.526;2024-03-02T10:34:28;41.68;39.70;42.82;;
42701;Laerm;28316;49.504;8.526;2024-03-02T10:36:55;41.67;39.92;43.04;;
42701;Laerm;28316;49.504;8.526;2024-03-02T10:39:21;41.65;39.34;43.14;;
42701;Laerm;28316;49.504;8.526;2024-03-02T10:41:48;41.63;40.13;45.17;;
42701;Laerm;28316;49.504;8.526;2024-03-02T10:44:15;41.61;39.92;43.94;;
42701;Laerm;28316;49.504;8.526;2024-03-02T10:46:41;41.57;39.92;42.82;;
42701;Laerm;28316;49.504;8.526;2024-03-02T10:49:09;41.53;39.81;43.14;;
42701;Laerm;28316;49.504;8.526;2024-03-02T10:51:35;41.52;39.92;42.82;;
42701;Laerm;28316;49.504;8.526;2024-03-02T10:54:04;41.46;39.58;42.88;;
42701;Laerm;28316;49.504;8.526;2024-03-02T10:56:49;41.46;39.92;42.93;;
42701;Laerm;28316;49.504;8.526;2024-03-02T10:59:34;41.43;39.58;42.76;;
42701;Laerm;28316;49.504;8.526;2024-03-02T11:02:05;41.38;39.34;42.82;;
42701;Laerm;28316;49.504;8.526;2024-03-02T11:04:34;41.33;39.46;42.65;;
42701;Laerm;28316;49.504;8.526;2024-03-02T11:07:10;41.33;39.34;42.82;;
42701;Laerm;28316;49.504;8.526;2024-03-02T11:10:13;41.36;39.34;42.76;;
42701;Laerm;28316;49.504;8.526;2024-03-02T11:12:51;41.32;39.34;42.71;;
42701;Laerm;28316;49.504;8.526;2024-03-02T11:15:18;41.32;39.46;42.76;;
42701;Laerm;28316;49.504;8.526;2024-03-02T11:17:45;41.34;39.46;42.88;;
42701;Laerm;28316;49.504;8.526;2024-03-02T11:20:12;41.34;39.70;42.82;;
42701;Laerm;28316;49.504;8.526;2024-03-02T11:22:39;41.32;39.70;42.88;;
42701;Laerm;28316;49.504;8.526;2024-03-02T11:25:05;41.31;38.81;42.71;;
42701;Laerm;28316;49.504;8.526;2024-03-02T11:33:09;41.24;39.21;42.82;;
42701;Laerm;28316;49.504;8.526;2024-03-02T11:35:43;41.20;39.21;42.65;;
42701;Laerm;28316;49.504;8.526;2024-03-02T11:38:12;41.19;39.34;42.71;;
42701;Laerm;28316;49.504;8.526;2024-03-02T11:40:39;41.18;39.21;42.65;;
42701;Laerm;28316;49.504;8.526;2024-03-02T11:43:06;41.15;39.21;42.65;;
42701;Laerm;28316;49.504;8.526;2024-03-02T11:45:33;41.16;38.81;42.82;;
42701;Laerm;28316;49.504;8.526;2024-03-02T11:48:00;41.16;38.67;42.76;;
42701;Laerm;28316;49.504;8.526;2024-03-02T11:50:30;41.12;39.21;42.59;;
42701;Laerm;28316;49.504;8.526;2024-03-02T11:52:57;41.09;39.08;42.59;;
42701;Laerm;28316;49.504;8.526;2024-03-02T11:55:25;41.09;39.21;42.59;;
42701;Laerm;28316;49.504;8.526;2024-03-02T11:57:52;41.05;39.21;42.65;;
42701;Laerm;28316;49.504;8.526;2024-03-02T12:00:21;41.03;38.95;42.59;;
42701;Laerm;28316;49.504;8.526;2024-03-02T12:03:09;41.02;38.52;42.59;;
42701;Laerm;28316;49.504;8.526;2024-03-02T12:05:35;41.01;39.08;42.59;;
42701;Laerm;28316;49.504;8.526;2024-03-02T12:08:04;40.99;38.81;42.59;;
42701;Laerm;28316;49.504;8.526;2024-03-02T12:10:31;41.00;39.08;42.59;;
42701;Laerm;28316;49.504;8.526;2024-03-02T12:12:57;40.98;39.21;42.53;;
42701;Laerm;28316;49.504;8.526;2024-03-02T12:15:32;40.95;39.08;42.41;;
42701;Laerm;28316;49.504;8.526;2024-03-02T12:18:00;40.95;39.08;42.71;;
42701;Laerm;28316;49.504;8.526;2024-03-02T12:20:29;40.96;38.81;42.47;;
42701;Laerm;28316;49.504;8.526;2024-03-02T12:22:58;40.94;38.81;42.53;;
42701;Laerm;28316;49.504;8.526;2024-03-02T12:25:25;40.94;38.67;42.64;;
42701;Laerm;28316;49.504;8.526;2024-03-02T12:27:56;40.88;38.52;42.41;;
42701;Laerm;28316;49.504;8.526;2024-03-02T12:30:23;40.90;38.52;42.53;;
42701;Laerm;28316;49.504;8.526;2024-03-02T12:32:51;40.90;38.52;47.42;;
42701;Laerm;28316;49.504;8.526;2024-03-02T12:35:18;40.91;38.81;42.59;;
42701;Laerm;28316;49.504;8.526;2024-03-02T12:37:48;40.88;38.52;42.65;;
42701;Laerm;28316;49.504;8.526;2024-03-02T12:40:19;40.83;38.81;42.76;;
42701;Laerm;28316;49.504;8.526;2024-03-02T12:42:47;40.80;38.81;42.41;;
42701;Laerm;28316;49.504;8.526;2024-03-02T12:45:13;40.78;38.52;42.47;;
42701;Laerm;28316;49.504;8.526;2024-03-02T12:47:40;40.77;38.37;42.47;;
42701;Laerm;28316;49.504;8.526;2024-03-02T12:50:07;40.74;38.37;42.53;;
42701;Laerm;28316;49.504;8.526;2024-03-02T12:52:34;40.71;38.37;42.29;;
42701;Laerm;28316;49.504;8.526;2024-03-02T12:55:01;40.79;33.90;59.27;;
42701;Laerm;28316;49.504;8.526;2024-03-02T12:57:30;40.72;38.37;42.41;;
42701;Laerm;28316;49.504;8.526;2024-03-02T13:00:06;40.73;38.60;42.29;;
42701;Laerm;28316;49.504;8.526;2024-03-02T13:02:36;40.68;38.67;42.47;;
42701;Laerm;28316;49.504;8.526;2024-03-02T13:05:03;40.68;38.37;42.35;;
42701;Laerm;28316;49.504;8.526;2024-03-02T13:07:29;40.65;38.52;42.09;;
42701;Laerm;28316;49.504;8.526;2024-03-02T13:09:58;40.65;38.21;42.22;;
42701;Laerm;28316;49.504;8.526;2024-03-02T13:12:24;40.68;38.67;42.47;;
42701;Laerm;28316;49.504;8.526;2024-03-02T13:14:53;40.67;38.37;42.53;;
42701;Laerm;28316;49.504;8.526;2024-03-02T13:17:20;40.63;38.21;42.47;;
42701;Laerm;28316;49.504;8.526;2024-03-02T13:19:59;40.63;38.21;42.47;;
42701;Laerm;28316;49.504;8.526;2024-03-02T13:22:27;40.58;38.21;42.16;;
42701;Laerm;28316;49.504;8.526;2024-03-02T13:24:54;40.59;38.21;42.35;;
42701;Laerm;28316;49.504;8.526;2024-03-02T13:27:23;40.59;38.21;42.16;;
42701;Laerm;28316;49.504;8.526;2024-03-02T13:29:49;40.57;38.52;42.09;;
42701;Laerm;28316;49.504;8.526;2024-03-02T13:32:16;40.60;38.52;42.47;;
42701;Laerm;28316;49.504;8.526;2024-03-02T13:34:42;40.58;38.37;42.22;;
42701;Laerm;28316;49.504;8.526;2024-03-02T13:37:08;40.59;38.52;42.42;;
42701;Laerm;28316;49.504;8.526;2024-03-02T13:39:34;40.56;38.37;42.41;;
42701;Laerm;28316;49.504;8.526;2024-03-02T13:42:12;40.60;38.21;42.22;;
42701;Laerm;28316;49.504;8.526;2024-03-02T13:44:41;40.58;38.37;42.35;;
42701;Laerm;28316;49.504;8.526;2024-03-02T13:47:09;40.61;38.21;42.59;;
42701;Laerm;28316;49.504;8.526;2024-03-02T13:49:35;40.61;38.32;42.03;;
42701;Laerm;28316;49.504;8.526;2024-03-02T13:52:07;40.60;38.52;42.71;;
42701;Laerm;28316;49.504;8.526;2024-03-02T13:54:47;40.58;38.21;42.22;;
42701;Laerm;28316;49.504;8.526;2024-03-02T13:57:13;40.60;38.37;42.59;;
42701;Laerm;28316;49.504;8.526;2024-03-02T13:59:40;40.65;38.05;42.29;;